createdAt,value
2022-11-05T00:00:16.613Z,26.00
2022-11-05T00:03:37.221Z,21.70
2022-11-05T00:06:32.690Z,28.38
2022-11-05T00:09:18.657Z,23.80
2022-11-05T00:12:05.976Z,26.02
2022-11-05T00:14:51.899Z,23.50
2022-11-05T00:17:20.478Z,20.35
2022-11-05T00:19:48.727Z,20.27
2022-11-05T00:22:34.520Z,24.17
2022-11-05T00:25:18.072Z,30.48
2022-11-05T00:27:49.926Z,24.58
2022-11-05T00:30:20.194Z,28.20
2022-11-05T00:32:50.069Z,18.08
2022-11-05T00:35:20.491Z,18.55
2022-11-05T00:37:50.471Z,21.33
2022-11-05T00:40:19.191Z,21.02
2022-11-05T00:43:06.806Z,22.33
2022-11-05T00:45:35.113Z,23.05
2022-11-05T00:48:21.398Z,24.10
2022-11-05T00:50:49.704Z,19.73
2022-11-05T00:53:18.367Z,28.63
2022-11-05T00:55:47.963Z,28.58
2022-11-05T00:58:19.130Z,21.67
2022-11-05T01:00:51.500Z,18.00
2022-11-05T01:03:22.484Z,20.55
2022-11-05T01:05:53.885Z,20.27
2022-11-05T01:08:24.696Z,17.75
2022-11-05T01:10:54.989Z,21.45
2022-11-05T01:13:27.759Z,30.02
2022-11-05T01:15:57.350Z,18.98
2022-11-05T01:18:26.501Z,20.85
2022-11-05T01:20:54.803Z,19.75
2022-11-05T01:23:23.340Z,21.13
2022-11-05T01:25:51.846Z,24.75
2022-11-05T01:28:20.412Z,23.17
2022-11-05T01:30:56.685Z,24.40
2022-11-05T01:33:25.375Z,22.27
2022-11-05T01:35:53.666Z,18.42
2022-11-05T01:38:22.238Z,20.05
2022-11-05T01:40:50.515Z,21.13
2022-11-05T01:43:20.427Z,20.80
2022-11-05T01:45:52.598Z,23.38
2022-11-05T01:48:24.894Z,25.05
2022-11-05T01:50:58.000Z,18.73
2022-11-05T01:53:31.582Z,13.10
2022-11-05T01:56:04.296Z,14.27
2022-11-05T01:58:38.445Z,19.50
2022-11-05T02:01:08.089Z,13.23
2022-11-05T02:03:36.895Z,15.50
2022-11-05T02:06:09.293Z,19.77
2022-11-05T02:08:48.294Z,24.10
2022-11-05T02:11:19.594Z,19.70
2022-11-05T02:13:49.239Z,18.60
2022-11-05T02:16:29.810Z,21.73
2022-11-05T02:19:02.807Z,19.02
2022-11-05T02:22:12.740Z,19.98
2022-11-05T02:25:14.941Z,19.58
2022-11-05T02:28:18.314Z,16.20
2022-11-05T02:30:54.068Z,15.82
2022-11-05T02:33:42.261Z,14.15
2022-11-05T02:36:22.507Z,14.70
2022-11-05T02:39:02.331Z,15.73
2022-11-05T02:41:36.903Z,13.02
2022-11-05T02:44:16.034Z,17.40
2022-11-05T02:46:54.788Z,19.58
2022-11-05T02:49:33.645Z,19.75
2022-11-05T02:52:07.721Z,18.90
2022-11-05T02:54:40.830Z,17.65
2022-11-05T02:57:09.630Z,16.90
2022-11-05T02:59:37.965Z,16.70
2022-11-05T03:02:08.153Z,16.90
2022-11-05T03:04:36.701Z,19.40
2022-11-05T03:07:23.473Z,18.08
2022-11-05T03:10:23.606Z,17.65
2022-11-05T03:13:02.405Z,20.75
2022-11-05T03:15:46.448Z,13.77
2022-11-05T03:18:22.491Z,17.08
2022-11-05T03:20:55.781Z,13.90
2022-11-05T03:23:29.317Z,19.05
2022-11-05T03:26:13.114Z,17.77
2022-11-05T03:28:44.314Z,17.23
2022-11-05T03:31:14.470Z,19.27
2022-11-05T03:33:46.063Z,16.38
2022-11-05T03:36:18.049Z,16.92
2022-11-05T03:38:50.730Z,18.48
2022-11-05T03:41:20.382Z,21.80
2022-11-05T03:43:52.901Z,15.43
2022-11-05T03:46:25.849Z,23.25
2022-11-05T03:48:58.350Z,21.00
2022-11-05T03:51:36.945Z,17.38
2022-11-05T03:54:06.701Z,25.13
2022-11-05T03:56:40.037Z,18.58
2022-11-05T03:59:10.847Z,14.60
2022-11-05T04:01:39.913Z,16.92
2022-11-05T04:04:10.803Z,19.08
2022-11-05T04:06:56.195Z,19.92
2022-11-05T04:09:42.735Z,17.17
2022-11-05T04:12:29.315Z,20.30
2022-11-05T04:14:57.993Z,20.38
2022-11-05T04:17:25.561Z,16.10
2022-11-05T04:20:12.908Z,19.00
2022-11-05T04:22:58.717Z,19.38
2022-11-05T04:25:27.614Z,16.98
2022-11-05T04:28:00.384Z,18.60
2022-11-05T04:30:28.264Z,17.88
2022-11-05T04:33:05.429Z,21.27
2022-11-05T04:35:38.095Z,19.00
2022-11-05T04:38:07.623Z,17.05
2022-11-05T04:40:36.425Z,21.52
2022-11-05T04:43:06.543Z,16.48
2022-11-05T04:45:38.279Z,15.65
2022-11-05T04:48:07.131Z,19.23
2022-11-05T04:50:37.136Z,18.05
2022-11-05T04:53:05.506Z,21.05
2022-11-05T04:55:34.106Z,23.55
2022-11-05T04:58:02.382Z,19.23
2022-11-05T05:00:30.998Z,19.13
2022-11-05T05:02:59.210Z,21.02
2022-11-05T05:05:27.726Z,18.30
2022-11-05T05:08:01.752Z,22.23
2022-11-05T05:10:30.194Z,19.30
2022-11-05T05:12:58.437Z,15.93
2022-11-05T05:15:26.974Z,15.77
2022-11-05T05:17:55.182Z,19.98
2022-11-05T05:20:41.150Z,20.92
2022-11-05T05:23:12.226Z,19.73
2022-11-05T05:25:41.000Z,17.75
2022-11-05T05:28:09.172Z,18.48
2022-11-05T05:30:37.813Z,20.15
2022-11-05T05:33:06.171Z,17.95
2022-11-05T05:35:34.782Z,13.13
2022-11-05T05:38:03.071Z,16.13
2022-11-05T05:40:32.973Z,20.70
2022-11-05T05:43:01.202Z,20.55
2022-11-05T05:45:29.763Z,21.08
2022-11-05T05:47:58.086Z,17.90
2022-11-05T05:50:26.569Z,17.42
2022-11-05T05:52:55.050Z,15.43
2022-11-05T05:55:23.643Z,19.80
2022-11-05T05:57:53.258Z,21.70
2022-11-05T06:00:21.972Z,17.77
2022-11-05T06:02:50.278Z,20.67
2022-11-05T06:05:18.893Z,19.98
2022-11-05T06:07:47.122Z,17.45
2022-11-05T06:10:15.741Z,18.65
2022-11-05T06:12:44.025Z,13.80
2022-11-05T06:15:13.971Z,17.80
2022-11-05T06:17:44.339Z,17.33
2022-11-05T06:20:13.839Z,15.68
2022-11-05T06:22:42.271Z,17.75
2022-11-05T06:25:11.403Z,14.15
2022-11-05T06:27:39.589Z,16.98
2022-11-05T06:30:09.543Z,16.05
2022-11-05T06:32:39.164Z,22.83
2022-11-05T06:35:08.107Z,17.38
2022-11-05T06:37:36.311Z,15.65
2022-11-05T06:40:05.474Z,19.83
2022-11-05T06:42:33.811Z,14.15
2022-11-05T06:45:02.552Z,24.45
2022-11-05T06:47:31.376Z,16.75
2022-11-05T06:50:01.383Z,21.38
2022-11-05T06:52:31.310Z,18.40
2022-11-05T06:54:59.850Z,15.82
2022-11-05T06:57:28.069Z,17.85
2022-11-05T07:00:01.362Z,14.93
2022-11-05T07:02:31.583Z,19.45
2022-11-05T07:05:01.504Z,14.82
2022-11-05T07:07:29.664Z,19.42
2022-11-05T07:09:58.263Z,20.33
2022-11-05T07:12:26.519Z,12.75
2022-11-05T07:14:55.073Z,17.35
2022-11-05T07:17:23.555Z,29.27
2022-11-05T07:19:52.152Z,14.93
2022-11-05T07:22:21.692Z,21.20
2022-11-05T07:24:50.434Z,16.48
2022-11-05T07:27:18.760Z,14.82
2022-11-05T07:29:47.404Z,10.32
2022-11-05T07:32:15.691Z,13.70
2022-11-05T07:34:44.292Z,19.27
2022-11-05T07:37:12.476Z,15.45
2022-11-05T07:39:42.346Z,11.98
2022-11-05T07:42:13.730Z,15.43
2022-11-05T07:44:42.371Z,17.92
2022-11-05T07:47:10.723Z,13.52
2022-11-05T07:49:39.344Z,15.23
2022-11-05T07:52:07.551Z,13.40
2022-11-05T07:54:36.044Z,12.90
2022-11-05T07:57:05.628Z,12.40
2022-11-05T07:59:34.267Z,13.32
2022-11-05T08:02:02.723Z,12.30
2022-11-05T08:04:31.352Z,15.93
2022-11-05T08:06:59.542Z,13.38
2022-11-05T08:09:27.942Z,14.85
2022-11-05T08:12:02.584Z,10.45
2022-11-05T08:14:33.297Z,12.18
2022-11-05T08:17:01.545Z,13.52
2022-11-05T08:19:30.029Z,16.00
2022-11-05T08:21:58.335Z,13.55
2022-11-05T08:24:26.842Z,9.45
2022-11-05T08:26:55.212Z,11.55
2022-11-05T08:29:23.761Z,13.38
2022-11-05T08:31:53.296Z,11.50
2022-11-05T08:34:21.850Z,8.43
2022-11-05T08:36:50.097Z,9.50
2022-11-05T08:39:19.918Z,10.40
2022-11-05T08:41:48.129Z,8.68
2022-11-05T08:44:16.602Z,9.38
2022-11-05T08:46:44.886Z,6.47
2022-11-05T08:49:14.705Z,8.07
2022-11-05T08:51:44.210Z,6.45
2022-11-05T08:54:12.790Z,5.93
2022-11-05T08:56:41.069Z,10.43
2022-11-05T08:59:09.726Z,6.40
2022-11-05T09:01:38.176Z,6.15
2022-11-05T09:04:06.845Z,5.45
2022-11-05T09:06:36.449Z,6.65
2022-11-05T09:09:05.216Z,10.02
2022-11-05T09:12:05.252Z,6.20
2022-11-05T09:14:22.118Z,5.72
2022-11-05T09:16:50.404Z,6.07
2022-11-05T09:19:19.017Z,7.55
2022-11-05T09:21:48.805Z,4.75
2022-11-05T09:24:17.693Z,6.43
2022-11-05T09:26:45.961Z,7.70
2022-11-05T09:29:14.737Z,4.70
2022-11-05T09:31:43.562Z,5.10
2022-11-05T09:34:12.283Z,8.00
2022-11-05T09:36:40.622Z,6.20
2022-11-05T09:39:10.812Z,7.55
2022-11-05T09:41:43.448Z,5.88
2022-11-05T09:44:15.700Z,3.67
2022-11-05T09:46:47.076Z,5.35
2022-11-05T09:49:27.262Z,4.82
2022-11-05T09:51:58.577Z,7.70
2022-11-05T09:54:33.241Z,2.97
2022-11-05T09:57:03.361Z,3.97
2022-11-05T09:59:40.134Z,4.47
2022-11-05T10:02:17.430Z,5.05
2022-11-05T10:04:49.150Z,4.82
2022-11-05T10:07:22.801Z,4.50
2022-11-05T10:09:55.389Z,6.25
2022-11-05T10:12:26.958Z,3.33
2022-11-05T10:15:04.817Z,3.05
2022-11-05T10:17:39.040Z,5.78
2022-11-05T10:20:14.983Z,2.25
2022-11-05T10:22:49.169Z,2.88
2022-11-05T10:25:21.514Z,5.10
2022-11-05T10:27:53.000Z,4.60
2022-11-05T10:30:22.535Z,6.68
2022-11-05T10:32:56.612Z,2.00
2022-11-05T10:35:27.905Z,6.05
2022-11-05T10:37:57.287Z,3.42
2022-11-05T10:40:35.964Z,7.03
2022-11-05T10:43:07.790Z,4.75
2022-11-05T10:45:49.077Z,7.18
2022-11-05T10:48:43.632Z,2.38
2022-11-05T10:51:13.921Z,5.28
2022-11-05T10:53:49.353Z,3.50
2022-11-05T10:56:34.348Z,12.05
2022-11-05T10:59:09.396Z,7.40
2022-11-05T11:01:41.356Z,1.25
2022-11-05T11:04:18.128Z,3.38
2022-11-05T11:06:51.551Z,5.82
2022-11-05T11:09:24.371Z,3.13
2022-11-05T11:12:02.503Z,3.65
2022-11-05T11:14:31.826Z,2.33
2022-11-05T11:17:26.740Z,2.70
2022-11-05T11:20:20.542Z,4.85
2022-11-05T11:23:11.329Z,5.32
2022-11-05T11:25:47.491Z,4.97
2022-11-05T11:28:23.906Z,1.50
2022-11-05T11:30:57.015Z,4.75
2022-11-05T11:33:29.422Z,5.30
2022-11-05T11:35:58.110Z,4.55
2022-11-05T11:38:30.520Z,12.05
2022-11-05T11:41:16.367Z,9.05
2022-11-05T11:43:47.005Z,7.05
2022-11-05T11:46:18.851Z,6.30
2022-11-05T11:48:49.450Z,6.22
2022-11-05T11:51:29.747Z,4.47
2022-11-05T11:54:00.099Z,8.43
2022-11-05T11:56:30.447Z,5.80
2022-11-05T11:59:04.627Z,5.60
2022-11-05T12:02:00.474Z,6.47
2022-11-05T12:04:51.041Z,11.30
2022-11-05T12:07:30.576Z,10.90
2022-11-05T12:10:16.074Z,9.75
2022-11-05T12:12:53.774Z,9.27
2022-11-05T12:15:37.362Z,6.95
2022-11-05T12:18:11.518Z,5.13
2022-11-05T12:21:07.222Z,11.85
2022-11-05T12:23:47.491Z,14.02
2022-11-05T12:26:25.878Z,9.85
2022-11-05T12:29:19.161Z,12.05
2022-11-05T12:32:00.290Z,12.30
2022-11-05T12:34:44.796Z,4.75
2022-11-05T12:37:24.577Z,4.75
2022-11-05T12:40:19.385Z,9.57
2022-11-05T12:43:01.372Z,16.55
2022-11-05T12:45:39.481Z,9.82
2022-11-05T12:48:29.280Z,4.28
2022-11-05T12:51:06.281Z,9.07
2022-11-05T12:53:50.566Z,15.80
2022-11-05T12:56:26.025Z,5.32
2022-11-05T12:59:02.111Z,12.30
2022-11-05T13:01:35.829Z,7.97
2022-11-05T13:04:14.660Z,7.32
2022-11-05T13:06:47.902Z,5.50
2022-11-05T13:09:20.185Z,5.15
2022-11-05T13:11:53.550Z,7.55
2022-11-05T13:14:25.934Z,4.78
2022-11-05T13:16:57.639Z,8.68
2022-11-05T13:19:30.631Z,4.93
2022-11-05T13:22:08.011Z,10.90
2022-11-05T13:24:40.154Z,13.10
2022-11-05T13:27:22.090Z,4.15
2022-11-05T13:29:54.175Z,6.30
2022-11-05T13:32:30.310Z,4.93
2022-11-05T13:35:03.021Z,10.55
2022-11-05T13:37:53.385Z,8.38
2022-11-05T13:40:26.374Z,6.35
2022-11-05T13:43:11.707Z,11.15
2022-11-05T13:46:06.317Z,4.03
2022-11-05T13:49:05.148Z,7.18
2022-11-05T13:51:55.073Z,11.77
2022-11-05T13:55:07.440Z,5.03
2022-11-05T13:58:17.279Z,9.90
2022-11-05T14:00:58.142Z,4.50
2022-11-05T14:03:26.852Z,17.70
2022-11-05T14:06:05.497Z,9.35
2022-11-05T14:08:41.114Z,10.75
2022-11-05T14:11:20.828Z,13.10
2022-11-05T14:13:55.667Z,7.25
2022-11-05T14:16:26.509Z,7.85
2022-11-05T14:19:16.227Z,7.78
2022-11-05T14:21:49.211Z,8.07
2022-11-05T14:24:29.188Z,4.93
2022-11-05T14:27:34.513Z,6.05
2022-11-05T14:30:40.723Z,11.15
2022-11-05T14:33:30.257Z,10.20
2022-11-05T14:36:34.494Z,7.75
2022-11-05T14:39:18.770Z,10.13
2022-11-05T14:42:03.516Z,6.55
2022-11-05T14:44:34.095Z,7.80
2022-11-05T14:47:05.996Z,7.15
2022-11-05T14:49:37.802Z,7.85
2022-11-05T14:52:09.437Z,3.25
2022-11-05T14:54:43.659Z,5.18
2022-11-05T14:57:16.447Z,4.68
2022-11-05T15:00:02.405Z,3.33
2022-11-05T15:02:37.935Z,7.22
2022-11-05T15:05:38.463Z,5.40
2022-11-05T15:08:31.346Z,5.18
2022-11-05T15:11:08.545Z,7.90
2022-11-05T15:13:47.572Z,7.35
2022-11-05T15:16:24.571Z,4.82
2022-11-05T15:18:55.199Z,6.88
2022-11-05T15:21:25.158Z,7.25
2022-11-05T15:23:57.639Z,4.88
2022-11-05T15:26:36.905Z,5.47
2022-11-05T15:29:17.255Z,4.35
2022-11-05T15:31:45.833Z,9.73
2022-11-05T15:34:21.000Z,6.85
2022-11-05T15:36:52.499Z,12.73
2022-11-05T15:39:30.448Z,6.88
2022-11-05T15:41:59.276Z,6.85
2022-11-05T15:44:31.647Z,7.93
2022-11-05T15:47:14.108Z,9.32
2022-11-05T15:49:46.671Z,5.53
2022-11-05T15:52:16.588Z,9.07
2022-11-05T15:54:46.082Z,8.65
2022-11-05T15:57:27.697Z,5.47
2022-11-05T15:59:57.731Z,5.93
2022-11-05T16:02:32.883Z,4.32
2022-11-05T16:05:06.627Z,3.47
2022-11-05T16:07:34.937Z,3.65
2022-11-05T16:10:07.368Z,5.05
2022-11-05T16:12:39.877Z,10.27
2022-11-05T16:15:24.779Z,3.28
2022-11-05T16:17:57.519Z,8.57
2022-11-05T16:20:32.180Z,8.20
2022-11-05T16:23:02.353Z,8.70
2022-11-05T16:25:40.207Z,8.65
2022-11-05T16:28:21.897Z,5.25
2022-11-05T16:30:56.545Z,12.13
2022-11-05T16:33:25.925Z,19.42
2022-11-05T16:35:54.804Z,8.55
2022-11-05T16:38:23.277Z,13.35
2022-11-05T16:40:51.991Z,9.35
2022-11-05T16:43:23.917Z,5.22
2022-11-05T16:45:58.620Z,7.55
2022-11-05T16:48:28.494Z,8.13
2022-11-05T16:50:57.306Z,8.95
2022-11-05T16:53:25.761Z,9.98
2022-11-05T16:55:54.285Z,5.03
2022-11-05T16:58:25.566Z,8.07
2022-11-05T17:01:02.018Z,7.72
2022-11-05T17:03:30.657Z,4.88
2022-11-05T17:05:59.173Z,6.28
2022-11-05T17:08:27.672Z,13.25
2022-11-05T17:10:56.236Z,5.28
2022-11-05T17:13:24.438Z,8.63
2022-11-05T17:15:53.317Z,9.77
2022-11-05T17:18:23.007Z,10.75
2022-11-05T17:20:53.653Z,7.75
2022-11-05T17:23:23.462Z,14.07
2022-11-05T17:25:54.903Z,12.38
2022-11-05T17:28:23.904Z,13.90
2022-11-05T17:30:53.338Z,13.95
2022-11-05T17:33:23.967Z,14.20
2022-11-05T17:35:53.255Z,13.88
2022-11-05T17:38:22.653Z,7.97
2022-11-05T17:40:51.958Z,9.18
2022-11-05T17:43:21.255Z,9.68
2022-11-05T17:45:52.888Z,14.57
2022-11-05T17:48:22.849Z,15.18
2022-11-05T17:50:52.384Z,10.43
2022-11-05T17:53:21.254Z,12.95
2022-11-05T17:55:49.901Z,13.35
2022-11-05T17:58:18.492Z,11.85
2022-11-05T18:00:47.987Z,13.43
2022-11-05T18:03:16.408Z,16.65
2022-11-05T18:05:46.486Z,16.80
2022-11-05T18:08:14.991Z,15.43
2022-11-05T18:10:44.058Z,14.88
2022-11-05T18:13:13.077Z,14.35
2022-11-05T18:15:42.083Z,8.68
2022-11-05T18:18:10.847Z,11.57
2022-11-05T18:20:39.829Z,13.95
2022-11-05T18:23:10.127Z,14.07
2022-11-05T18:25:41.333Z,10.35
2022-11-05T18:28:10.209Z,13.55
2022-11-05T18:30:40.187Z,12.20
2022-11-05T18:33:08.516Z,13.57
2022-11-05T18:35:42.189Z,18.00
2022-11-05T18:38:12.225Z,23.10
2022-11-05T18:40:40.985Z,12.52
2022-11-05T18:43:09.733Z,15.25
2022-11-05T18:45:38.472Z,16.20
2022-11-05T18:48:07.283Z,10.65
2022-11-05T18:50:35.821Z,15.38
2022-11-05T18:53:04.093Z,19.48
2022-11-05T18:55:34.108Z,23.23
2022-11-05T18:58:05.467Z,17.80
2022-11-05T19:00:34.358Z,16.00
2022-11-05T19:03:02.863Z,32.85
2022-11-05T19:05:31.621Z,33.78
2022-11-05T19:08:00.268Z,40.72
2022-11-05T19:10:29.658Z,33.17
2022-11-05T19:12:59.248Z,40.15
2022-11-05T19:15:27.821Z,40.85
2022-11-05T19:17:56.303Z,33.63
2022-11-05T19:20:25.115Z,44.90
2022-11-05T19:22:53.552Z,57.63
2022-11-05T19:25:22.179Z,59.08
2022-11-05T19:27:50.487Z,63.03
2022-11-05T19:30:20.641Z,59.20
2022-11-05T19:32:48.908Z,64.38
2022-11-05T19:35:17.670Z,64.22
2022-11-05T19:37:45.926Z,60.38
2022-11-05T19:40:14.736Z,59.95
2022-11-05T19:42:42.946Z,62.83
2022-11-05T19:45:38.404Z,66.05
2022-11-05T19:48:02.349Z,52.63
2022-11-05T19:50:31.192Z,68.22
2022-11-05T19:52:59.754Z,54.00
2022-11-05T19:55:28.709Z,53.15
2022-11-05T19:57:57.031Z,47.13
2022-11-05T20:00:25.733Z,49.50
2022-11-05T20:02:54.278Z,55.95
2022-11-05T20:05:24.178Z,55.80
2022-11-05T20:07:53.338Z,57.25
2022-11-05T20:10:22.706Z,61.60
2022-11-05T20:12:51.339Z,42.17
2022-11-05T20:15:20.270Z,37.63
2022-11-05T20:17:52.774Z,34.85
2022-11-05T20:20:23.745Z,44.47
2022-11-05T20:22:53.469Z,36.97
2022-11-05T20:25:22.095Z,35.63
2022-11-05T20:27:50.558Z,37.22
2022-11-05T20:30:19.890Z,46.72
2022-11-05T20:32:48.216Z,41.55
2022-11-05T20:35:17.085Z,36.42
2022-11-05T20:37:53.634Z,33.95
2022-11-05T20:40:22.767Z,28.08
2022-11-05T20:42:51.106Z,24.87
2022-11-05T20:45:19.853Z,28.00
2022-11-05T20:47:48.166Z,41.55
2022-11-05T20:50:16.785Z,29.10
2022-11-05T20:52:44.995Z,26.95
2022-11-05T20:55:14.962Z,29.27
2022-11-05T20:57:43.143Z,34.22
2022-11-05T21:00:13.544Z,24.05
2022-11-05T21:02:42.192Z,35.03
2022-11-05T21:05:10.979Z,25.60
2022-11-05T21:07:39.219Z,21.67
2022-11-05T21:10:08.338Z,14.60
2022-11-05T21:12:38.101Z,21.92
2022-11-05T21:15:08.584Z,25.40
2022-11-05T21:17:37.555Z,22.17
2022-11-05T21:20:07.122Z,18.42
2022-11-05T21:22:35.478Z,19.25
2022-11-05T21:25:04.122Z,18.92
2022-11-05T21:27:32.331Z,19.67
2022-11-05T21:30:02.359Z,14.02
2022-11-05T21:32:30.542Z,15.18
2022-11-05T21:34:59.206Z,13.17
2022-11-05T21:37:27.575Z,18.63
2022-11-05T21:39:56.113Z,13.35
2022-11-05T21:42:24.551Z,14.32
2022-11-05T21:44:57.730Z,15.10
2022-11-05T21:47:30.499Z,16.90
2022-11-05T21:49:59.065Z,21.15
2022-11-05T21:52:44.655Z,17.35
2022-11-05T21:55:33.398Z,6.20
2022-11-05T21:58:25.015Z,14.85
2022-11-05T22:00:53.618Z,15.43
2022-11-05T22:03:23.389Z,10.52
2022-11-05T22:05:52.252Z,16.80
2022-11-05T22:08:20.597Z,16.25
2022-11-05T22:10:49.123Z,11.52
2022-11-05T22:13:18.290Z,18.95
2022-11-05T22:15:55.894Z,17.13
2022-11-05T22:18:25.627Z,13.55
2022-11-05T22:20:54.577Z,17.88
2022-11-05T22:23:23.016Z,9.18
2022-11-05T22:25:51.844Z,11.25
2022-11-05T22:28:20.138Z,11.82
2022-11-05T22:30:48.807Z,13.18
2022-11-05T22:33:17.180Z,13.75
2022-11-05T22:35:47.246Z,10.65
2022-11-05T22:38:15.641Z,9.80
2022-11-05T22:40:44.368Z,12.25
2022-11-05T22:43:12.660Z,11.75
2022-11-05T22:45:41.272Z,11.98
2022-11-05T22:48:10.385Z,9.55
2022-11-05T22:50:39.369Z,15.68
2022-11-05T22:53:09.083Z,12.18
2022-11-05T22:55:40.298Z,15.65
2022-11-05T22:58:08.555Z,14.50
2022-11-05T23:00:38.522Z,16.17
2022-11-05T23:03:06.933Z,11.40
2022-11-05T23:05:35.604Z,15.63
2022-11-05T23:08:21.483Z,11.43
2022-11-05T23:11:23.307Z,15.68
2022-11-05T23:13:51.524Z,9.38
2022-11-05T23:16:37.274Z,15.57
2022-11-05T23:19:23.183Z,12.00
2022-11-05T23:22:09.494Z,11.23
2022-11-05T23:24:37.765Z,22.50
2022-11-05T23:27:08.010Z,15.63
2022-11-05T23:29:36.755Z,15.90
2022-11-05T23:32:23.148Z,15.57
2022-11-05T23:34:51.746Z,12.35
2022-11-05T23:37:38.541Z,17.02
2022-11-05T23:40:09.355Z,16.13
2022-11-05T23:42:57.412Z,10.13
2022-11-05T23:45:43.087Z,13.52
2022-11-05T23:48:20.005Z,11.30
2022-11-05T23:50:52.799Z,13.27
2022-11-05T23:53:21.742Z,12.18
2022-11-05T23:55:50.339Z,11.43
2022-11-05T23:58:20.391Z,12.85
